Pike, New York
Current Conditions -  °F | °C
As of 5:54 AM on Monday 20 Oct 2014 (Local Time) from KDSV Reporting Station
Overcast Overcast  
Wind Chill:   Ceiling: 11000
Heat Index:   Visibility: 10mi
Dew Point:   Wind: 7mph
Humidity: 79%   Direction: 160°SSE
Pressure: 29.99"   Gusts: NA
Location:  42.56°N, 78.15°W
Report Text: KDSV 200954Z AUTO 16006KT 10SM OVC110 04/01 A2999 RMK AO2 SLP167 T00390006
Loading
Personal Weather Stations






























Interactive Weather Map
Tropical Storm Tracking
New forecast layout! Learn more

10-Day Weather Forecast

Advertisements
Track Severe Weather on mobile